sensor_id;sensor_type;location;lat;lon;timestamp;P1;durP1;ratioP1;P2;durP2;ratioP2
42110;SDS011;27766;52.174;5.456;2023-12-04T00:01:20;17.92;;;12.50;;
42110;SDS011;27766;52.174;5.456;2023-12-04T00:03:47;18.17;;;12.52;;
42110;SDS011;27766;52.174;5.456;2023-12-04T00:06:14;19.15;;;12.52;;
42110;SDS011;27766;52.174;5.456;2023-12-04T00:08:41;19.50;;;12.63;;
42110;SDS011;27766;52.174;5.456;2023-12-04T00:11:09;19.20;;;11.93;;
42110;SDS011;27766;52.174;5.456;2023-12-04T00:13:36;25.63;;;13.52;;
42110;SDS011;27766;52.174;5.456;2023-12-04T00:16:03;22.65;;;13.50;;
42110;SDS011;27766;52.174;5.456;2023-12-04T00:18:31;19.67;;;12.73;;
42110;SDS011;27766;52.174;5.456;2023-12-04T00:20:59;22.60;;;13.23;;
42110;SDS011;27766;52.174;5.456;2023-12-04T00:23:26;17.48;;;11.57;;
42110;SDS011;27766;52.174;5.456;2023-12-04T00:25:54;18.48;;;12.30;;
42110;SDS011;27766;52.174;5.456;2023-12-04T00:28:22;19.17;;;12.82;;
42110;SDS011;27766;52.174;5.456;2023-12-04T00:30:49;23.13;;;13.60;;
42110;SDS011;27766;52.174;5.456;2023-12-04T00:33:16;21.10;;;12.77;;
42110;SDS011;27766;52.174;5.456;2023-12-04T00:35:44;21.58;;;12.40;;
42110;SDS011;27766;52.174;5.456;2023-12-04T00:38:11;21.08;;;13.35;;
42110;SDS011;27766;52.174;5.456;2023-12-04T00:40:38;22.63;;;12.40;;
42110;SDS011;27766;52.174;5.456;2023-12-04T00:43:05;21.20;;;13.50;;
42110;SDS011;27766;52.174;5.456;2023-12-04T00:45:33;19.65;;;13.63;;
42110;SDS011;27766;52.174;5.456;2023-12-04T00:48:01;23.27;;;13.23;;
42110;SDS011;27766;52.174;5.456;2023-12-04T00:50:32;22.83;;;13.77;;
42110;SDS011;27766;52.174;5.456;2023-12-04T00:53:00;19.25;;;12.63;;
42110;SDS011;27766;52.174;5.456;2023-12-04T00:55:29;25.73;;;14.18;;
42110;SDS011;27766;52.174;5.456;2023-12-04T00:57:56;22.00;;;12.80;;
42110;SDS011;27766;52.174;5.456;2023-12-04T01:00:24;20.67;;;13.52;;
42110;SDS011;27766;52.174;5.456;2023-12-04T01:02:52;19.63;;;13.05;;
42110;SDS011;27766;52.174;5.456;2023-12-04T01:05:19;22.42;;;14.13;;
42110;SDS011;27766;52.174;5.456;2023-12-04T01:07:46;23.75;;;14.25;;
42110;SDS011;27766;52.174;5.456;2023-12-04T01:10:13;23.30;;;14.50;;
42110;SDS011;27766;52.174;5.456;2023-12-04T01:12:40;23.73;;;14.05;;
42110;SDS011;27766;52.174;5.456;2023-12-04T01:15:08;20.75;;;13.63;;
42110;SDS011;27766;52.174;5.456;2023-12-04T01:17:36;19.42;;;13.80;;
42110;SDS011;27766;52.174;5.456;2023-12-04T01:20:03;24.98;;;14.18;;
42110;SDS011;27766;52.174;5.456;2023-12-04T01:22:31;20.95;;;13.75;;
42110;SDS011;27766;52.174;5.456;2023-12-04T01:24:59;25.83;;;15.05;;
42110;SDS011;27766;52.174;5.456;2023-12-04T01:27:27;24.50;;;15.15;;
42110;SDS011;27766;52.174;5.456;2023-12-04T01:29:54;23.63;;;14.20;;
42110;SDS011;27766;52.174;5.456;2023-12-04T01:32:21;22.00;;;14.35;;
42110;SDS011;27766;52.174;5.456;2023-12-04T01:34:48;26.33;;;14.27;;
42110;SDS011;27766;52.174;5.456;2023-12-04T01:37:15;21.38;;;13.40;;
42110;SDS011;27766;52.174;5.456;2023-12-04T01:39:43;26.02;;;14.70;;
42110;SDS011;27766;52.174;5.456;2023-12-04T01:42:10;24.60;;;14.00;;
42110;SDS011;27766;52.174;5.456;2023-12-04T01:44:37;24.38;;;14.05;;
42110;SDS011;27766;52.174;5.456;2023-12-04T01:47:04;26.08;;;14.93;;
42110;SDS011;27766;52.174;5.456;2023-12-04T01:49:34;26.25;;;15.10;;
42110;SDS011;27766;52.174;5.456;2023-12-04T01:52:01;26.70;;;15.77;;
42110;SDS011;27766;52.174;5.456;2023-12-04T01:54:30;27.83;;;14.10;;
42110;SDS011;27766;52.174;5.456;2023-12-04T01:56:59;22.95;;;13.18;;
42110;SDS011;27766;52.174;5.456;2023-12-04T01:59:26;22.35;;;14.13;;
42110;SDS011;27766;52.174;5.456;2023-12-04T02:01:53;23.17;;;15.27;;
42110;SDS011;27766;52.174;5.456;2023-12-04T02:04:21;33.85;;;14.68;;
42110;SDS011;27766;52.174;5.456;2023-12-04T02:06:49;23.42;;;14.18;;
42110;SDS011;27766;52.174;5.456;2023-12-04T02:09:16;25.17;;;14.38;;
42110;SDS011;27766;52.174;5.456;2023-12-04T02:11:44;25.98;;;13.65;;
42110;SDS011;27766;52.174;5.456;2023-12-04T02:14:11;18.65;;;12.35;;
42110;SDS011;27766;52.174;5.456;2023-12-04T02:16:40;24.90;;;14.05;;
42110;SDS011;27766;52.174;5.456;2023-12-04T02:19:11;21.98;;;13.48;;
42110;SDS011;27766;52.174;5.456;2023-12-04T02:21:39;20.55;;;14.25;;
42110;SDS011;27766;52.174;5.456;2023-12-04T02:24:06;18.73;;;12.88;;
42110;SDS011;27766;52.174;5.456;2023-12-04T02:26:44;27.38;;;15.00;;
42110;SDS011;27766;52.174;5.456;2023-12-04T02:29:23;27.23;;;14.15;;
42110;SDS011;27766;52.174;5.456;2023-12-04T02:31:56;22.73;;;13.75;;
42110;SDS011;27766;52.174;5.456;2023-12-04T02:34:24;23.48;;;14.70;;
42110;SDS011;27766;52.174;5.456;2023-12-04T02:36:53;22.27;;;13.77;;
42110;SDS011;27766;52.174;5.456;2023-12-04T02:39:21;18.08;;;12.25;;
42110;SDS011;27766;52.174;5.456;2023-12-04T02:41:48;26.58;;;13.52;;
42110;SDS011;27766;52.174;5.456;2023-12-04T02:44:15;19.38;;;12.90;;
42110;SDS011;27766;52.174;5.456;2023-12-04T02:46:43;21.30;;;13.80;;
42110;SDS011;27766;52.174;5.456;2023-12-04T02:49:10;19.73;;;12.68;;
42110;SDS011;27766;52.174;5.456;2023-12-04T02:51:40;26.85;;;13.55;;
42110;SDS011;27766;52.174;5.456;2023-12-04T02:54:08;21.85;;;13.07;;
42110;SDS011;27766;52.174;5.456;2023-12-04T02:56:35;19.42;;;13.68;;
42110;SDS011;27766;52.174;5.456;2023-12-04T02:59:03;17.65;;;12.55;;
42110;SDS011;27766;52.174;5.456;2023-12-04T03:01:30;24.15;;;14.23;;
42110;SDS011;27766;52.174;5.456;2023-12-04T03:03:57;20.75;;;12.60;;
42110;SDS011;27766;52.174;5.456;2023-12-04T03:06:24;21.30;;;13.48;;
42110;SDS011;27766;52.174;5.456;2023-12-04T03:08:51;21.45;;;12.57;;
42110;SDS011;27766;52.174;5.456;2023-12-04T03:11:18;23.33;;;12.45;;
42110;SDS011;27766;52.174;5.456;2023-12-04T03:13:46;19.23;;;12.82;;
42110;SDS011;27766;52.174;5.456;2023-12-04T03:16:16;19.77;;;12.98;;
42110;SDS011;27766;52.174;5.456;2023-12-04T03:18:44;19.13;;;12.75;;
42110;SDS011;27766;52.174;5.456;2023-12-04T03:21:12;27.17;;;11.73;;
42110;SDS011;27766;52.174;5.456;2023-12-04T03:23:39;18.60;;;12.75;;
42110;SDS011;27766;52.174;5.456;2023-12-04T03:26:06;21.88;;;11.15;;
42110;SDS011;27766;52.174;5.456;2023-12-04T03:28:34;20.13;;;12.00;;
42110;SDS011;27766;52.174;5.456;2023-12-04T03:31:01;21.27;;;11.65;;
42110;SDS011;27766;52.174;5.456;2023-12-04T03:33:29;18.25;;;11.93;;
42110;SDS011;27766;52.174;5.456;2023-12-04T03:35:56;19.23;;;11.57;;
42110;SDS011;27766;52.174;5.456;2023-12-04T03:38:23;16.10;;;11.63;;
42110;SDS011;27766;52.174;5.456;2023-12-04T03:40:50;22.67;;;11.85;;
42110;SDS011;27766;52.174;5.456;2023-12-04T03:43:18;19.42;;;11.13;;
42110;SDS011;27766;52.174;5.456;2023-12-04T03:45:45;21.42;;;11.27;;
42110;SDS011;27766;52.174;5.456;2023-12-04T03:48:12;16.85;;;10.07;;
42110;SDS011;27766;52.174;5.456;2023-12-04T03:50:39;17.48;;;11.45;;
42110;SDS011;27766;52.174;5.456;2023-12-04T03:53:07;18.50;;;11.18;;
42110;SDS011;27766;52.174;5.456;2023-12-04T03:55:34;16.23;;;10.88;;
42110;SDS011;27766;52.174;5.456;2023-12-04T03:58:01;15.95;;;10.27;;
42110;SDS011;27766;52.174;5.456;2023-12-04T04:00:29;16.10;;;10.85;;
42110;SDS011;27766;52.174;5.456;2023-12-04T04:02:56;16.88;;;10.45;;
42110;SDS011;27766;52.174;5.456;2023-12-04T04:05:23;21.95;;;11.15;;
42110;SDS011;27766;52.174;5.456;2023-12-04T04:07:51;16.08;;;10.85;;
42110;SDS011;27766;52.174;5.456;2023-12-04T04:10:18;13.27;;;9.38;;
42110;SDS011;27766;52.174;5.456;2023-12-04T04:12:45;15.88;;;9.50;;
42110;SDS011;27766;52.174;5.456;2023-12-04T04:15:12;18.92;;;10.68;;
42110;SDS011;27766;52.174;5.456;2023-12-04T04:17:39;16.95;;;9.93;;
42110;SDS011;27766;52.174;5.456;2023-12-04T04:20:08;13.88;;;10.27;;
42110;SDS011;27766;52.174;5.456;2023-12-04T04:22:35;14.10;;;9.63;;
42110;SDS011;27766;52.174;5.456;2023-12-04T04:25:05;16.67;;;10.00;;
42110;SDS011;27766;52.174;5.456;2023-12-04T04:27:33;15.68;;;10.05;;
42110;SDS011;27766;52.174;5.456;2023-12-04T04:30:01;16.35;;;9.00;;
42110;SDS011;27766;52.174;5.456;2023-12-04T04:32:29;14.48;;;9.60;;
42110;SDS011;27766;52.174;5.456;2023-12-04T04:34:56;14.52;;;9.63;;
42110;SDS011;27766;52.174;5.456;2023-12-04T04:37:23;13.80;;;9.52;;
42110;SDS011;27766;52.174;5.456;2023-12-04T04:39:51;18.33;;;10.00;;
42110;SDS011;27766;52.174;5.456;2023-12-04T04:42:18;16.30;;;10.73;;
42110;SDS011;27766;52.174;5.456;2023-12-04T04:44:45;13.88;;;9.60;;
42110;SDS011;27766;52.174;5.456;2023-12-04T04:47:12;24.05;;;10.45;;
42110;SDS011;27766;52.174;5.456;2023-12-04T04:49:39;15.82;;;10.90;;
42110;SDS011;27766;52.174;5.456;2023-12-04T04:52:08;21.52;;;10.25;;
42110;SDS011;27766;52.174;5.456;2023-12-04T04:54:35;15.73;;;10.85;;
42110;SDS011;27766;52.174;5.456;2023-12-04T04:57:03;12.85;;;9.65;;
42110;SDS011;27766;52.174;5.456;2023-12-04T04:59:30;12.75;;;9.57;;
42110;SDS011;27766;52.174;5.456;2023-12-04T05:02:01;14.15;;;9.20;;
42110;SDS011;27766;52.174;5.456;2023-12-04T05:04:29;18.40;;;10.00;;
42110;SDS011;27766;52.174;5.456;2023-12-04T05:06:56;14.63;;;9.27;;
42110;SDS011;27766;52.174;5.456;2023-12-04T05:09:24;16.27;;;9.63;;
42110;SDS011;27766;52.174;5.456;2023-12-04T05:11:51;19.27;;;10.45;;
42110;SDS011;27766;52.174;5.456;2023-12-04T05:14:18;14.15;;;9.30;;
42110;SDS011;27766;52.174;5.456;2023-12-04T05:16:45;16.35;;;10.27;;
42110;SDS011;27766;52.174;5.456;2023-12-04T05:19:12;18.48;;;10.90;;
42110;SDS011;27766;52.174;5.456;2023-12-04T05:21:39;15.48;;;9.30;;
42110;SDS011;27766;52.174;5.456;2023-12-04T05:24:07;16.17;;;10.10;;
42110;SDS011;27766;52.174;5.456;2023-12-04T05:26:34;13.68;;;9.40;;
42110;SDS011;27766;52.174;5.456;2023-12-04T05:29:01;14.88;;;10.23;;
42110;SDS011;27766;52.174;5.456;2023-12-04T05:31:29;15.70;;;10.02;;
42110;SDS011;27766;52.174;5.456;2023-12-04T05:33:56;12.85;;;8.52;;
42110;SDS011;27766;52.174;5.456;2023-12-04T05:36:23;11.75;;;8.48;;
42110;SDS011;27766;52.174;5.456;2023-12-04T05:38:50;15.65;;;9.20;;
42110;SDS011;27766;52.174;5.456;2023-12-04T05:41:20;18.80;;;9.75;;
42110;SDS011;27766;52.174;5.456;2023-12-04T05:43:47;13.75;;;9.45;;
42110;SDS011;27766;52.174;5.456;2023-12-04T05:46:14;16.05;;;8.45;;
42110;SDS011;27766;52.174;5.456;2023-12-04T05:48:42;13.45;;;9.63;;
42110;SDS011;27766;52.174;5.456;2023-12-04T05:51:09;14.05;;;9.13;;
42110;SDS011;27766;52.174;5.456;2023-12-04T05:53:38;14.90;;;9.18;;
42110;SDS011;27766;52.174;5.456;2023-12-04T05:56:05;15.63;;;8.90;;
42110;SDS011;27766;52.174;5.456;2023-12-04T05:58:33;16.95;;;8.90;;
42110;SDS011;27766;52.174;5.456;2023-12-04T06:01:00;12.32;;;8.75;;
42110;SDS011;27766;52.174;5.456;2023-12-04T06:03:28;12.40;;;9.00;;
42110;SDS011;27766;52.174;5.456;2023-12-04T06:05:56;14.65;;;8.57;;
42110;SDS011;27766;52.174;5.456;2023-12-04T06:08:27;12.02;;;7.95;;
42110;SDS011;27766;52.174;5.456;2023-12-04T06:10:54;17.65;;;8.88;;
42110;SDS011;27766;52.174;5.456;2023-12-04T06:13:21;12.68;;;7.90;;
42110;SDS011;27766;52.174;5.456;2023-12-04T06:15:48;13.52;;;8.50;;
42110;SDS011;27766;52.174;5.456;2023-12-04T06:18:16;13.20;;;8.35;;
42110;SDS011;27766;52.174;5.456;2023-12-04T06:20:43;14.43;;;8.50;;
42110;SDS011;27766;52.174;5.456;2023-12-04T06:23:10;11.02;;;8.43;;
42110;SDS011;27766;52.174;5.456;2023-12-04T06:25:37;13.27;;;8.75;;
42110;SDS011;27766;52.174;5.456;2023-12-04T06:28:05;14.27;;;8.18;;
42110;SDS011;27766;52.174;5.456;2023-12-04T06:30:33;11.23;;;7.63;;
42110;SDS011;27766;52.174;5.456;2023-12-04T06:33:01;14.55;;;9.63;;
42110;SDS011;27766;52.174;5.456;2023-12-04T06:35:31;12.65;;;8.27;;
42110;SDS011;27766;52.174;5.456;2023-12-04T06:38:05;12.57;;;8.13;;
42110;SDS011;27766;52.174;5.456;2023-12-04T06:40:34;15.38;;;9.27;;
42110;SDS011;27766;52.174;5.456;2023-12-04T06:43:02;12.20;;;7.78;;
42110;SDS011;27766;52.174;5.456;2023-12-04T06:45:30;10.18;;;7.72;;
42110;SDS011;27766;52.174;5.456;2023-12-04T06:47:59;15.65;;;8.98;;
42110;SDS011;27766;52.174;5.456;2023-12-04T06:50:29;11.05;;;7.95;;
42110;SDS011;27766;52.174;5.456;2023-12-04T06:52:56;10.27;;;7.72;;
42110;SDS011;27766;52.174;5.456;2023-12-04T06:55:24;13.90;;;8.15;;
42110;SDS011;27766;52.174;5.456;2023-12-04T06:57:51;11.32;;;8.18;;
42110;SDS011;27766;52.174;5.456;2023-12-04T07:00:18;12.68;;;8.15;;
42110;SDS011;27766;52.174;5.456;2023-12-04T07:02:49;12.35;;;8.25;;
42110;SDS011;27766;52.174;5.456;2023-12-04T07:05:17;10.85;;;7.22;;
42110;SDS011;27766;52.174;5.456;2023-12-04T07:07:46;10.90;;;7.78;;
42110;SDS011;27766;52.174;5.456;2023-12-04T07:10:13;15.25;;;8.40;;
42110;SDS011;27766;52.174;5.456;2023-12-04T07:12:42;11.63;;;7.43;;
42110;SDS011;27766;52.174;5.456;2023-12-04T07:15:11;11.50;;;7.15;;
42110;SDS011;27766;52.174;5.456;2023-12-04T07:17:39;11.00;;;7.57;;
42110;SDS011;27766;52.174;5.456;2023-12-04T07:20:07;12.45;;;8.32;;
42110;SDS011;27766;52.174;5.456;2023-12-04T07:22:35;17.92;;;7.75;;
42110;SDS011;27766;52.174;5.456;2023-12-04T07:25:05;13.00;;;7.80;;
42110;SDS011;27766;52.174;5.456;2023-12-04T07:27:36;13.15;;;7.50;;
42110;SDS011;27766;52.174;5.456;2023-12-04T07:30:04;11.60;;;6.82;;
42110;SDS011;27766;52.174;5.456;2023-12-04T07:32:31;12.98;;;6.63;;
42110;SDS011;27766;52.174;5.456;2023-12-04T07:35:00;8.43;;;6.00;;
42110;SDS011;27766;52.174;5.456;2023-12-04T07:37:27;8.95;;;6.90;;
42110;SDS011;27766;52.174;5.456;2023-12-04T07:39:57;9.93;;;6.90;;
42110;SDS011;27766;52.174;5.456;2023-12-04T07:42:24;9.90;;;6.97;;
42110;SDS011;27766;52.174;5.456;2023-12-04T07:44:51;10.82;;;7.10;;
42110;SDS011;27766;52.174;5.456;2023-12-04T07:47:18;14.32;;;8.02;;
42110;SDS011;27766;52.174;5.456;2023-12-04T07:49:45;14.25;;;7.63;;
42110;SDS011;27766;52.174;5.456;2023-12-04T07:52:13;11.82;;;7.10;;
42110;SDS011;27766;52.174;5.456;2023-12-04T07:54:40;13.70;;;7.75;;
42110;SDS011;27766;52.174;5.456;2023-12-04T07:57:07;10.88;;;6.88;;
42110;SDS011;27766;52.174;5.456;2023-12-04T07:59:34;8.93;;;6.50;;
42110;SDS011;27766;52.174;5.456;2023-12-04T08:02:02;8.65;;;6.15;;
42110;SDS011;27766;52.174;5.456;2023-12-04T08:04:33;10.95;;;6.30;;
42110;SDS011;27766;52.174;5.456;2023-12-04T08:07:00;9.10;;;6.40;;
42110;SDS011;27766;52.174;5.456;2023-12-04T08:09:28;12.70;;;7.18;;
42110;SDS011;27766;52.174;5.456;2023-12-04T08:11:55;8.20;;;6.75;;
42110;SDS011;27766;52.174;5.456;2023-12-04T08:14:24;13.20;;;6.82;;
42110;SDS011;27766;52.174;5.456;2023-12-04T08:16:51;9.35;;;6.68;;
42110;SDS011;27766;52.174;5.456;2023-12-04T08:19:18;8.57;;;6.10;;
42110;SDS011;27766;52.174;5.456;2023-12-04T08:21:45;10.45;;;6.30;;
42110;SDS011;27766;52.174;5.456;2023-12-04T08:24:13;15.77;;;6.15;;
42110;SDS011;27766;52.174;5.456;2023-12-04T08:26:40;11.05;;;6.18;;
42110;SDS011;27766;52.174;5.456;2023-12-04T08:29:07;8.70;;;6.75;;
42110;SDS011;27766;52.174;5.456;2023-12-04T08:31:34;10.48;;;6.28;;
42110;SDS011;27766;52.174;5.456;2023-12-04T08:34:02;26.98;;;6.93;;
42110;SDS011;27766;52.174;5.456;2023-12-04T08:36:29;9.82;;;6.63;;
42110;SDS011;27766;52.174;5.456;2023-12-04T08:39:12;11.07;;;6.57;;
42110;SDS011;27766;52.174;5.456;2023-12-04T08:41:40;7.78;;;5.60;;
42110;SDS011;27766;52.174;5.456;2023-12-04T08:44:17;8.55;;;5.95;;
42110;SDS011;27766;52.174;5.456;2023-12-04T08:46:44;7.47;;;5.70;;
42110;SDS011;27766;52.174;5.456;2023-12-04T08:49:12;8.48;;;5.68;;
42110;SDS011;27766;52.174;5.456;2023-12-04T08:51:39;13.18;;;6.22;;
42110;SDS011;27766;52.174;5.456;2023-12-04T08:54:06;8.57;;;5.65;;
42110;SDS011;27766;52.174;5.456;2023-12-04T08:56:37;8.43;;;5.68;;
42110;SDS011;27766;52.174;5.456;2023-12-04T08:59:04;9.27;;;6.38;;
42110;SDS011;27766;52.174;5.456;2023-12-04T09:01:31;8.30;;;5.85;;
42110;SDS011;27766;52.174;5.456;2023-12-04T09:04:00;6.60;;;5.40;;
42110;SDS011;27766;52.174;5.456;2023-12-04T09:06:27;8.23;;;5.82;;
42110;SDS011;27766;52.174;5.456;2023-12-04T09:08:57;8.05;;;5.72;;
42110;SDS011;27766;52.174;5.456;2023-12-04T09:11:26;10.45;;;6.20;;
42110;SDS011;27766;52.174;5.456;2023-12-04T09:13:53;10.38;;;5.97;;
42110;SDS011;27766;52.174;5.456;2023-12-04T09:16:21;8.27;;;5.53;;
42110;SDS011;27766;52.174;5.456;2023-12-04T09:18:48;14.32;;;5.85;;
42110;SDS011;27766;52.174;5.456;2023-12-04T09:21:16;9.43;;;5.72;;
42110;SDS011;27766;52.174;5.456;2023-12-04T09:23:43;8.15;;;5.47;;
42110;SDS011;27766;52.174;5.456;2023-12-04T09:26:16;6.97;;;5.10;;
42110;SDS011;27766;52.174;5.456;2023-12-04T09:28:44;7.82;;;5.93;;
42110;SDS011;27766;52.174;5.456;2023-12-04T09:31:11;11.55;;;5.93;;
42110;SDS011;27766;52.174;5.456;2023-12-04T09:33:38;9.18;;;5.72;;
42110;SDS011;27766;52.174;5.456;2023-12-04T09:36:06;10.52;;;5.65;;
42110;SDS011;27766;52.174;5.456;2023-12-04T09:38:33;12.00;;;5.57;;
42110;SDS011;27766;52.174;5.456;2023-12-04T09:41:01;6.68;;;5.50;;
42110;SDS011;27766;52.174;5.456;2023-12-04T09:43:33;8.25;;;5.82;;
42110;SDS011;27766;52.174;5.456;2023-12-04T09:46:01;8.27;;;5.85;;
42110;SDS011;27766;52.174;5.456;2023-12-04T09:48:30;7.82;;;6.00;;
42110;SDS011;27766;52.174;5.456;2023-12-04T09:50:59;8.13;;;4.60;;
42110;SDS011;27766;52.174;5.456;2023-12-04T09:53:27;13.57;;;5.68;;
42110;SDS011;27766;52.174;5.456;2023-12-04T09:55:55;8.95;;;5.32;;
42110;SDS011;27766;52.174;5.456;2023-12-04T09:58:27;7.68;;;5.30;;
42110;SDS011;27766;52.174;5.456;2023-12-04T10:00:58;7.50;;;5.13;;
42110;SDS011;27766;52.174;5.456;2023-12-04T10:03:27;8.73;;;5.82;;
42110;SDS011;27766;52.174;5.456;2023-12-04T10:05:57;8.10;;;4.88;;
42110;SDS011;27766;52.174;5.456;2023-12-04T10:08:24;7.75;;;5.55;;
42110;SDS011;27766;52.174;5.456;2023-12-04T10:10:51;8.18;;;5.10;;
42110;SDS011;27766;52.174;5.456;2023-12-04T10:13:19;10.02;;;4.88;;
42110;SDS011;27766;52.174;5.456;2023-12-04T10:16:06;11.52;;;5.35;;
42110;SDS011;27766;52.174;5.456;2023-12-04T10:18:34;8.43;;;5.63;;
42110;SDS011;27766;52.174;5.456;2023-12-04T10:21:01;8.40;;;5.28;;
42110;SDS011;27766;52.174;5.456;2023-12-04T10:23:43;9.25;;;5.45;;
42110;SDS011;27766;52.174;5.456;2023-12-04T10:26:14;6.63;;;5.03;;
42110;SDS011;27766;52.174;5.456;2023-12-04T10:28:58;7.30;;;4.97;;
42110;SDS011;27766;52.174;5.456;2023-12-04T10:31:33;8.00;;;5.53;;
42110;SDS011;27766;52.174;5.456;2023-12-04T10:34:02;10.20;;;5.32;;
42110;SDS011;27766;52.174;5.456;2023-12-04T10:36:32;6.53;;;4.70;;
42110;SDS011;27766;52.174;5.456;2023-12-04T10:39:01;7.65;;;5.00;;
42110;SDS011;27766;52.174;5.456;2023-12-04T10:41:31;7.07;;;4.97;;
42110;SDS011;27766;52.174;5.456;2023-12-04T10:44:00;9.25;;;5.30;;
42110;SDS011;27766;52.174;5.456;2023-12-04T10:46:36;7.82;;;5.35;;
42110;SDS011;27766;52.174;5.456;2023-12-04T10:49:04;5.68;;;4.40;;
42110;SDS011;27766;52.174;5.456;2023-12-04T10:51:33;8.00;;;5.28;;
42110;SDS011;27766;52.174;5.456;2023-12-04T10:54:01;7.78;;;5.32;;
42110;SDS011;27766;52.174;5.456;2023-12-04T10:56:36;7.05;;;4.72;;
42110;SDS011;27766;52.174;5.456;2023-12-04T10:59:08;9.32;;;4.43;;
42110;SDS011;27766;52.174;5.456;2023-12-04T11:01:42;7.20;;;4.70;;
42110;SDS011;27766;52.174;5.456;2023-12-04T11:04:14;6.38;;;5.00;;
42110;SDS011;27766;52.174;5.456;2023-12-04T11:06:45;6.65;;;5.00;;
42110;SDS011;27766;52.174;5.456;2023-12-04T11:09:16;8.48;;;5.13;;
42110;SDS011;27766;52.174;5.456;2023-12-04T11:11:48;7.25;;;4.50;;
42110;SDS011;27766;52.174;5.456;2023-12-04T11:14:22;11.95;;;5.07;;
42110;SDS011;27766;52.174;5.456;2023-12-04T11:16:51;7.30;;;5.10;;
42110;SDS011;27766;52.174;5.456;2023-12-04T11:19:28;7.03;;;5.47;;
42110;SDS011;27766;52.174;5.456;2023-12-04T11:22:01;7.88;;;5.18;;
42110;SDS011;27766;52.174;5.456;2023-12-04T11:24:30;10.05;;;5.30;;
42110;SDS011;27766;52.174;5.456;2023-12-04T11:26:59;9.63;;;5.32;;
42110;SDS011;27766;52.174;5.456;2023-12-04T11:29:27;7.93;;;5.45;;
42110;SDS011;27766;52.174;5.456;2023-12-04T11:31:56;9.48;;;5.90;;
42110;SDS011;27766;52.174;5.456;2023-12-04T11:34:24;9.80;;;5.95;;
42110;SDS011;27766;52.174;5.456;2023-12-04T11:36:52;9.65;;;6.85;;
42110;SDS011;27766;52.174;5.456;2023-12-04T11:39:19;7.18;;;5.40;;
42110;SDS011;27766;52.174;5.456;2023-12-04T11:41:46;8.93;;;6.35;;
42110;SDS011;27766;52.174;5.456;2023-12-04T11:44:14;10.10;;;6.40;;
42110;SDS011;27766;52.174;5.456;2023-12-04T11:49:33;8.93;;;6.07;;
42110;SDS011;27766;52.174;5.456;2023-12-04T11:52:05;10.52;;;6.35;;
42110;SDS011;27766;52.174;5.456;2023-12-04T11:57:38;8.95;;;5.30;;
42110;SDS011;27766;52.174;5.456;2023-12-04T12:05:39;7.90;;;5.65;;
42110;SDS011;27766;52.174;5.456;2023-12-04T12:08:08;13.15;;;6.00;;
42110;SDS011;27766;52.174;5.456;2023-12-04T12:10:35;10.88;;;6.57;;
42110;SDS011;27766;52.174;5.456;2023-12-04T12:13:03;9.95;;;6.70;;
42110;SDS011;27766;52.174;5.456;2023-12-04T12:15:32;10.60;;;6.90;;
42110;SDS011;27766;52.174;5.456;2023-12-04T12:18:01;11.80;;;6.82;;
42110;SDS011;27766;52.174;5.456;2023-12-04T12:20:29;10.68;;;6.53;;
42110;SDS011;27766;52.174;5.456;2023-12-04T12:22:57;11.30;;;7.35;;
42110;SDS011;27766;52.174;5.456;2023-12-04T12:25:24;9.45;;;6.88;;
42110;SDS011;27766;52.174;5.456;2023-12-04T12:27:53;10.43;;;7.00;;
42110;SDS011;27766;52.174;5.456;2023-12-04T12:30:20;11.90;;;7.30;;
42110;SDS011;27766;52.174;5.456;2023-12-04T12:32:47;10.00;;;7.00;;
42110;SDS011;27766;52.174;5.456;2023-12-04T12:35:17;11.88;;;7.13;;
42110;SDS011;27766;52.174;5.456;2023-12-04T12:37:44;12.77;;;6.95;;
42110;SDS011;27766;52.174;5.456;2023-12-04T12:40:11;10.20;;;6.43;;
42110;SDS011;27766;52.174;5.456;2023-12-04T12:42:39;10.18;;;6.50;;
42110;SDS011;27766;52.174;5.456;2023-12-04T12:45:09;7.93;;;6.30;;
42110;SDS011;27766;52.174;5.456;2023-12-04T12:47:42;11.15;;;7.55;;
42110;SDS011;27766;52.174;5.456;2023-12-04T12:50:11;9.65;;;6.70;;
42110;SDS011;27766;52.174;5.456;2023-12-04T12:52:42;8.75;;;6.80;;
42110;SDS011;27766;52.174;5.456;2023-12-04T12:55:10;11.60;;;6.80;;
42110;SDS011;27766;52.174;5.456;2023-12-04T12:57:37;9.40;;;6.97;;
42110;SDS011;27766;52.174;5.456;2023-12-04T13:00:05;9.73;;;6.85;;
42110;SDS011;27766;52.174;5.456;2023-12-04T13:02:37;7.88;;;6.13;;
42110;SDS011;27766;52.174;5.456;2023-12-04T13:05:05;10.82;;;6.72;;
42110;SDS011;27766;52.174;5.456;2023-12-04T13:07:33;14.57;;;6.78;;
42110;SDS011;27766;52.174;5.456;2023-12-04T13:10:01;9.85;;;6.85;;
42110;SDS011;27766;52.174;5.456;2023-12-04T13:12:30;11.40;;;7.38;;
42110;SDS011;27766;52.174;5.456;2023-12-04T13:14:57;9.18;;;6.05;;
42110;SDS011;27766;52.174;5.456;2023-12-04T13:17:25;8.80;;;6.55;;
42110;SDS011;27766;52.174;5.456;2023-12-04T13:19:52;9.27;;;6.45;;
42110;SDS011;27766;52.174;5.456;2023-12-04T13:22:19;15.52;;;6.82;;
42110;SDS011;27766;52.174;5.456;2023-12-04T13:24:46;11.10;;;7.55;;
42110;SDS011;27766;52.174;5.456;2023-12-04T13:27:14;7.95;;;6.32;;
42110;SDS011;27766;52.174;5.456;2023-12-04T13:29:45;13.00;;;7.07;;
42110;SDS011;27766;52.174;5.456;2023-12-04T13:32:16;10.32;;;6.95;;
42110;SDS011;27766;52.174;5.456;2023-12-04T13:34:44;14.88;;;7.30;;
42110;SDS011;27766;52.174;5.456;2023-12-04T13:37:11;12.40;;;6.47;;
42110;SDS011;27766;52.174;5.456;2023-12-04T13:39:38;9.48;;;6.10;;
42110;SDS011;27766;52.174;5.456;2023-12-04T13:42:15;11.55;;;7.07;;
42110;SDS011;27766;52.174;5.456;2023-12-04T13:45:01;10.73;;;6.57;;
42110;SDS011;27766;52.174;5.456;2023-12-04T13:47:31;8.98;;;6.00;;
42110;SDS011;27766;52.174;5.456;2023-12-04T13:50:01;9.57;;;6.72;;
42110;SDS011;27766;52.174;5.456;2023-12-04T13:52:30;12.00;;;6.97;;
42110;SDS011;27766;52.174;5.456;2023-12-04T13:55:00;9.32;;;6.65;;
42110;SDS011;27766;52.174;5.456;2023-12-04T13:57:30;11.23;;;7.57;;
42110;SDS011;27766;52.174;5.456;2023-12-04T14:00:10;12.15;;;7.00;;
42110;SDS011;27766;52.174;5.456;2023-12-04T14:02:38;11.02;;;6.78;;
42110;SDS011;27766;52.174;5.456;2023-12-04T14:05:05;9.90;;;6.22;;
42110;SDS011;27766;52.174;5.456;2023-12-04T14:07:33;9.10;;;6.78;;
42110;SDS011;27766;52.174;5.456;2023-12-04T14:10:01;9.27;;;6.18;;
42110;SDS011;27766;52.174;5.456;2023-12-04T14:12:29;7.80;;;6.28;;
42110;SDS011;27766;52.174;5.456;2023-12-04T14:14:56;10.88;;;6.28;;
42110;SDS011;27766;52.174;5.456;2023-12-04T14:17:25;8.93;;;6.35;;
42110;SDS011;27766;52.174;5.456;2023-12-04T14:19:52;8.35;;;6.40;;
42110;SDS011;27766;52.174;5.456;2023-12-04T14:22:20;8.77;;;6.38;;
42110;SDS011;27766;52.174;5.456;2023-12-04T14:24:47;10.48;;;6.20;;
42110;SDS011;27766;52.174;5.456;2023-12-04T14:27:15;9.75;;;6.55;;
42110;SDS011;27766;52.174;5.456;2023-12-04T14:29:42;9.73;;;6.15;;
42110;SDS011;27766;52.174;5.456;2023-12-04T14:32:11;14.25;;;6.88;;
42110;SDS011;27766;52.174;5.456;2023-12-04T14:34:40;8.43;;;6.15;;
42110;SDS011;27766;52.174;5.456;2023-12-04T14:37:07;12.48;;;7.15;;
42110;SDS011;27766;52.174;5.456;2023-12-04T14:39:35;11.60;;;7.35;;
42110;SDS011;27766;52.174;5.456;2023-12-04T14:42:02;9.43;;;6.68;;
42110;SDS011;27766;52.174;5.456;2023-12-04T14:44:30;9.50;;;6.40;;
42110;SDS011;27766;52.174;5.456;2023-12-04T14:47:00;10.65;;;6.70;;
42110;SDS011;27766;52.174;5.456;2023-12-04T14:49:27;9.02;;;6.88;;
42110;SDS011;27766;52.174;5.456;2023-12-04T14:51:54;8.40;;;6.72;;